createdAt,value
2019-01-16T00:01:04.353Z,95360.06
2019-01-16T00:03:45.950Z,95360.98
2019-01-16T00:06:37.788Z,95354.23
2019-01-16T00:09:26.765Z,95354.64
2019-01-16T00:12:25.892Z,95356.12
2019-01-16T00:15:17.998Z,95366.14
2019-01-16T00:18:04.944Z,95363.36
2019-01-16T00:20:56.641Z,95359.70
2019-01-16T00:23:38.131Z,95354.31
2019-01-16T00:26:19.797Z,95360.61
2019-01-16T00:29:09.187Z,95359.24
2019-01-16T00:31:56.276Z,95364.09
2019-01-16T00:35:03.341Z,95357.73
2019-01-16T00:37:52.868Z,95356.73
2019-01-16T00:40:40.711Z,95348.57
2019-01-16T00:43:26.318Z,95346.89
2019-01-16T00:46:20.666Z,95349.51
2019-01-16T00:49:12.455Z,95346.06
2019-01-16T00:52:04.674Z,95338.56
2019-01-16T00:54:59.778Z,95339.66
2019-01-16T00:57:54.606Z,95344.50
2019-01-16T01:00:39.818Z,95345.97
2019-01-16T01:03:31.854Z,95341.30
2019-01-16T01:06:18.239Z,95331.14
2019-01-16T01:09:07.297Z,95337.31
2019-01-16T01:12:02.208Z,95343.97
2019-01-16T01:14:55.902Z,95344.19
2019-01-16T01:17:42.380Z,95336.32
2019-01-16T01:20:29.216Z,95337.27
2019-01-16T01:23:16.862Z,95333.05
2019-01-16T01:25:56.716Z,95334.19
2019-01-16T01:28:54.847Z,95334.59
2019-01-16T01:31:35.660Z,95336.98
2019-01-16T01:34:19.717Z,95337.84
2019-01-16T01:37:05.378Z,95336.34
2019-01-16T01:39:52.265Z,95336.42
2019-01-16T01:42:33.377Z,95329.94
2019-01-16T01:45:25.343Z,95334.00
2019-01-16T01:48:14.388Z,95323.75
2019-01-16T01:51:01.849Z,95323.64
2019-01-16T01:53:37.322Z,95319.25
2019-01-16T01:56:26.385Z,95326.27
2019-01-16T01:59:14.181Z,95320.45
2019-01-16T02:01:56.693Z,95314.44
2019-01-16T02:04:38.837Z,95306.86
2019-01-16T02:07:30.947Z,95306.24
2019-01-16T02:10:32.398Z,95301.14
2019-01-16T02:13:25.230Z,95307.67
2019-01-16T02:16:15.291Z,95303.40
2019-01-16T02:19:06.944Z,95301.53
2019-01-16T02:21:56.557Z,95291.22
2019-01-16T02:24:44.273Z,95289.77
2019-01-16T02:27:49.681Z,95298.69
2019-01-16T02:30:34.715Z,95296.23
2019-01-16T02:33:28.852Z,95292.42
2019-01-16T02:36:27.904Z,95285.82
2019-01-16T02:39:14.966Z,95281.81
2019-01-16T02:41:57.406Z,95277.98
2019-01-16T02:44:43.358Z,95273.13
2019-01-16T02:47:36.904Z,95271.52
2019-01-16T02:50:25.859Z,95270.73
2019-01-16T02:53:13.560Z,95268.77
2019-01-16T02:56:02.539Z,95265.97
2019-01-16T02:58:48.629Z,95260.52
2019-01-16T03:01:36.415Z,95254.56
2019-01-16T03:04:28.207Z,95250.14
2019-01-16T03:07:29.333Z,95248.26
2019-01-16T03:10:27.231Z,95243.59
2019-01-16T03:13:19.108Z,95240.11
2019-01-16T03:16:10.248Z,95237.87
2019-01-16T03:19:04.591Z,95238.52
2019-01-16T03:21:48.250Z,95232.23
2019-01-16T03:24:26.328Z,95233.77
2019-01-16T03:27:30.886Z,95237.77
2019-01-16T03:30:22.058Z,95231.34
2019-01-16T03:33:07.077Z,95230.31
2019-01-16T03:36:06.342Z,95225.75
2019-01-16T03:38:46.010Z,95222.37
2019-01-16T03:41:29.414Z,95214.27
2019-01-16T03:44:18.580Z,95216.05
2019-01-16T03:46:56.192Z,95210.96
2019-01-16T03:49:36.043Z,95210.28
2019-01-16T03:52:25.074Z,95207.39
2019-01-16T03:55:14.011Z,95209.47
2019-01-16T03:58:08.707Z,95208.91
2019-01-16T04:00:50.464Z,95205.95
2019-01-16T04:03:38.307Z,95210.72
2019-01-16T04:06:42.544Z,95206.91
2019-01-16T04:09:34.297Z,95196.84
2019-01-16T04:12:14.287Z,95195.46
2019-01-16T04:15:09.149Z,95199.00
2019-01-16T04:17:58.028Z,95194.85
2019-01-16T04:20:38.672Z,95191.16
2019-01-16T04:23:27.694Z,95196.09
2019-01-16T04:26:34.843Z,95193.56
2019-01-16T04:29:22.739Z,95190.33
2019-01-16T04:32:10.416Z,95199.77
2019-01-16T04:34:57.954Z,95195.17
2019-01-16T04:37:48.398Z,95193.56
2019-01-16T04:40:49.541Z,95191.58
2019-01-16T04:43:31.543Z,95191.33
2019-01-16T04:46:19.411Z,95187.30
2019-01-16T04:48:56.064Z,95190.23
2019-01-16T04:51:42.618Z,95188.01
2019-01-16T04:54:35.820Z,95187.59
2019-01-16T04:57:40.232Z,95186.55
2019-01-16T05:00:23.055Z,95186.70
2019-01-16T05:03:12.039Z,95173.67
2019-01-16T05:05:50.735Z,95169.70
2019-01-16T05:08:45.476Z,95167.69
2019-01-16T05:11:37.541Z,95174.10
2019-01-16T05:14:19.308Z,95167.97
2019-01-16T05:17:08.207Z,95171.84
2019-01-16T05:19:51.011Z,95174.72
2019-01-16T05:22:34.983Z,95173.70
2019-01-16T05:25:14.162Z,95163.22
2019-01-16T05:28:02.976Z,95165.57
2019-01-16T05:30:50.981Z,95157.76
2019-01-16T05:33:38.328Z,95164.13
2019-01-16T05:36:17.229Z,95161.28
2019-01-16T05:39:07.484Z,95158.51
2019-01-16T05:42:11.689Z,95159.20
2019-01-16T05:45:03.591Z,95166.63
2019-01-16T05:47:41.189Z,95156.84
2019-01-16T05:50:39.090Z,95155.34
2019-01-16T05:53:37.051Z,95150.88
2019-01-16T05:56:41.125Z,95147.23
2019-01-16T05:59:30.028Z,95154.27
2019-01-16T06:02:13.705Z,95153.96
2019-01-16T06:05:02.504Z,95146.33
2019-01-16T06:07:43.130Z,95148.36
2019-01-16T06:10:31.369Z,95144.69
2019-01-16T06:13:19.229Z,95137.22
2019-01-16T06:16:10.554Z,95137.56
2019-01-16T06:19:05.811Z,95140.13
2019-01-16T06:22:03.124Z,95137.61
2019-01-16T06:24:52.304Z,95135.52
2019-01-16T06:27:39.904Z,95130.59
2019-01-16T06:30:21.231Z,95129.58
2019-01-16T06:33:10.082Z,95132.55
2019-01-16T06:35:53.068Z,95137.69
2019-01-16T06:38:44.807Z,95129.56
2019-01-16T06:41:38.215Z,95126.25
2019-01-16T06:44:35.554Z,95129.95
2019-01-16T06:47:27.415Z,95131.02
2019-01-16T06:50:19.063Z,95126.16
2019-01-16T06:52:58.241Z,95121.92
2019-01-16T06:55:46.385Z,95124.78
2019-01-16T06:58:43.037Z,95118.06
2019-01-16T07:01:20.285Z,95116.59
2019-01-16T07:04:08.356Z,95115.52
2019-01-16T07:06:56.865Z,95121.08
2019-01-16T07:09:44.684Z,95113.53
2019-01-16T07:12:42.484Z,95111.12
2019-01-16T07:15:38.430Z,95123.83
2019-01-16T07:18:26.841Z,95122.41
2019-01-16T07:21:18.860Z,95119.41
2019-01-16T07:24:22.840Z,95112.41
2019-01-16T07:27:23.918Z,95117.23
2019-01-16T07:30:25.472Z,95112.09
2019-01-16T07:33:13.527Z,95113.89
2019-01-16T07:36:14.798Z,95110.70
2019-01-16T07:39:12.743Z,95107.69
2019-01-16T07:42:19.981Z,95102.53
2019-01-16T07:44:59.391Z,95095.78
2019-01-16T07:48:07.546Z,95091.88
2019-01-16T07:50:55.150Z,95101.09
2019-01-16T07:53:34.792Z,95095.29
2019-01-16T07:56:33.015Z,95100.42
2019-01-16T07:59:21.957Z,95097.37
2019-01-16T08:02:17.317Z,95086.40
2019-01-16T08:05:13.065Z,95091.79
2019-01-16T08:08:05.029Z,95077.39
2019-01-16T08:10:52.636Z,95077.08
2019-01-16T08:13:48.037Z,95069.95
2019-01-16T08:16:35.784Z,95069.23
2019-01-16T08:19:16.337Z,95071.05
2019-01-16T08:22:10.290Z,95077.95
2019-01-16T08:25:08.516Z,95076.93
2019-01-16T08:28:04.124Z,95078.75
2019-01-16T08:30:56.148Z,95091.48
2019-01-16T08:33:44.342Z,95083.34
2019-01-16T08:36:32.576Z,95087.05
2019-01-16T08:39:15.229Z,95093.11
2019-01-16T08:42:10.166Z,95086.87
2019-01-16T08:44:53.082Z,95070.34
2019-01-16T08:47:48.280Z,95065.37
2019-01-16T08:50:46.893Z,95059.00
2019-01-16T08:53:39.239Z,95061.72
2019-01-16T08:56:40.316Z,95059.31
2019-01-16T08:59:47.668Z,95067.56
2019-01-16T09:02:41.552Z,95070.98
2019-01-16T09:05:29.759Z,95057.52
2019-01-16T09:08:26.766Z,95051.08
2019-01-16T09:11:14.680Z,95053.05
2019-01-16T09:14:06.726Z,95057.02
2019-01-16T09:16:54.517Z,95059.48
2019-01-16T09:19:49.680Z,95044.92
2019-01-16T09:22:41.520Z,95050.72
2019-01-16T09:25:29.340Z,95052.52
2019-01-16T09:28:14.383Z,95052.77
2019-01-16T09:31:02.068Z,95046.95
2019-01-16T09:33:49.955Z,95041.38
2019-01-16T09:36:57.209Z,95039.30
2019-01-16T09:39:44.978Z,95037.18
2019-01-16T09:42:43.113Z,95037.78
2019-01-16T09:45:22.894Z,95029.85
2019-01-16T09:48:13.745Z,95028.34
2019-01-16T09:51:05.121Z,95030.41
2019-01-16T09:53:47.865Z,95028.08
2019-01-16T09:56:46.140Z,95024.39
2019-01-16T09:59:33.805Z,95018.74
2019-01-16T10:02:21.874Z,95009.34
2019-01-16T10:05:09.580Z,95005.30
2019-01-16T10:07:47.213Z,95004.25
2019-01-16T10:10:39.022Z,95003.09
2019-01-16T10:13:26.570Z,95003.41
2019-01-16T10:16:14.334Z,94987.83
2019-01-16T10:19:13.257Z,94987.50
2019-01-16T10:22:17.303Z,94984.56
2019-01-16T10:24:59.003Z,94976.47
2019-01-16T10:27:53.224Z,94980.01
2019-01-16T10:30:51.540Z,94975.72
2019-01-16T10:33:39.221Z,94972.33
2019-01-16T10:36:19.745Z,94966.91
2019-01-16T10:39:18.110Z,94954.42
2019-01-16T10:42:11.925Z,94951.28
2019-01-16T10:44:59.444Z,94944.70
2019-01-16T10:47:57.729Z,94940.03
2019-01-16T10:50:37.597Z,94939.89
2019-01-16T10:53:32.589Z,94930.45
2019-01-16T10:56:24.832Z,94932.91
2019-01-16T10:59:12.768Z,94926.05
2019-01-16T11:02:13.861Z,94922.71
2019-01-16T11:05:01.503Z,94923.42
2019-01-16T11:07:43.984Z,94913.39
2019-01-16T11:10:32.273Z,94905.66
2019-01-16T11:13:15.319Z,94901.27
2019-01-16T11:16:03.300Z,94898.44
2019-01-16T11:18:46.379Z,94902.56
2019-01-16T11:21:45.258Z,94904.38
2019-01-16T11:24:34.329Z,94889.73
2019-01-16T11:27:29.309Z,94881.38
2019-01-16T11:30:30.245Z,94879.26
2019-01-16T11:33:20.044Z,94869.11
2019-01-16T11:36:18.402Z,94865.68
2019-01-16T11:39:00.240Z,94866.23
2019-01-16T11:42:01.418Z,94862.80
2019-01-16T11:44:56.479Z,94862.36
2019-01-16T11:47:34.680Z,94858.00
2019-01-16T11:50:36.786Z,94847.08
2019-01-16T11:53:24.615Z,94843.92
2019-01-16T11:56:13.621Z,94839.58
2019-01-16T11:59:11.687Z,94840.60
2019-01-16T12:02:07.085Z,94826.52
2019-01-16T12:04:54.836Z,94827.20
2019-01-16T12:07:43.967Z,94818.22
2019-01-16T12:10:51.727Z,94818.13
2019-01-16T12:13:40.780Z,94815.66
2019-01-16T12:16:20.016Z,94809.58
2019-01-16T12:19:07.601Z,94807.77
2019-01-16T12:22:11.735Z,94801.37
2019-01-16T12:25:10.906Z,94793.52
2019-01-16T12:27:54.277Z,94786.66
2019-01-16T12:30:44.057Z,94790.58
2019-01-16T12:33:31.704Z,94779.13
2019-01-16T12:39:19.643Z,94774.63
2019-01-16T12:42:11.935Z,94769.08
2019-01-16T12:44:59.840Z,94767.22
2019-01-16T12:48:02.473Z,94760.60
2019-01-16T12:51:06.511Z,94757.75
2019-01-16T12:53:50.693Z,94748.17
2019-01-16T12:56:31.844Z,94752.76
2019-01-16T12:59:19.913Z,94743.12
2019-01-16T13:02:15.164Z,94740.05
2019-01-16T13:05:04.112Z,94736.45
2019-01-16T13:08:00.735Z,94740.11
2019-01-16T13:11:01.672Z,94741.00
2019-01-16T13:14:00.002Z,94727.95
2019-01-16T13:16:45.021Z,94735.27
2019-01-16T13:19:37.062Z,94732.03
2019-01-16T13:22:32.534Z,94728.67
2019-01-16T13:25:12.919Z,94723.92
2019-01-16T13:28:04.959Z,94714.56
2019-01-16T13:30:52.681Z,94709.45
2019-01-16T13:33:50.620Z,94707.28
2019-01-16T13:36:38.569Z,94709.19
2019-01-16T13:39:43.500Z,94695.66
2019-01-16T13:42:31.292Z,94698.20
2019-01-16T13:45:19.920Z,94702.16
2019-01-16T13:48:07.748Z,94684.13
2019-01-16T13:51:09.571Z,94683.77
2019-01-16T13:54:10.389Z,94687.05
2019-01-16T13:57:05.036Z,94687.11
2019-01-16T13:59:52.928Z,94684.44
2019-01-16T14:02:47.875Z,94676.98
2019-01-16T14:05:35.590Z,94685.33
2019-01-16T14:08:23.347Z,94679.03
2019-01-16T14:11:11.154Z,94674.02
2019-01-16T14:14:15.167Z,94679.37
2019-01-16T14:17:03.154Z,94672.11
2019-01-16T14:19:43.672Z,94670.96
2019-01-16T14:22:42.011Z,94672.45
2019-01-16T14:25:24.226Z,94666.28
2019-01-16T14:28:13.583Z,94659.11
2019-01-16T14:31:01.366Z,94658.37
2019-01-16T14:33:49.191Z,94663.45
2019-01-16T14:36:38.058Z,94655.12
2019-01-16T14:39:29.322Z,94657.58
2019-01-16T14:42:33.389Z,94645.09
2019-01-16T14:45:12.938Z,94642.41
2019-01-16T14:47:51.310Z,94636.73
2019-01-16T14:50:40.394Z,94637.70
2019-01-16T14:53:38.520Z,94630.39
2019-01-16T14:56:26.643Z,94634.34
2019-01-16T14:59:21.533Z,94630.34
2019-01-16T15:02:25.607Z,94627.88
2019-01-16T15:05:10.109Z,94632.74
2019-01-16T15:07:55.536Z,94628.01
2019-01-16T15:10:44.532Z,94638.18
2019-01-16T15:13:42.758Z,94630.30
2019-01-16T15:16:27.402Z,94625.30
2019-01-16T15:19:08.412Z,94621.39
2019-01-16T15:21:46.968Z,94618.97
2019-01-16T15:24:39.166Z,94613.94
2019-01-16T15:27:27.368Z,94615.01
2019-01-16T15:30:15.754Z,94611.44
2019-01-16T15:33:07.915Z,94606.80
2019-01-16T15:35:58.398Z,94611.66
2019-01-16T15:38:45.426Z,94608.95
2019-01-16T15:41:33.332Z,94605.88
2019-01-16T15:44:21.014Z,94609.03
2019-01-16T15:46:59.584Z,94600.68
2019-01-16T15:49:46.955Z,94604.66
2019-01-16T15:52:34.618Z,94595.97
2019-01-16T15:55:39.686Z,94593.61
2019-01-16T15:58:21.268Z,94591.60
2019-01-16T16:01:09.639Z,94585.88
2019-01-16T16:03:57.358Z,94582.97
2019-01-16T16:06:53.648Z,94579.34
2019-01-16T16:09:34.294Z,94579.77
2019-01-16T16:12:17.994Z,94568.67
2019-01-16T16:15:22.418Z,94566.48
2019-01-16T16:18:29.388Z,94566.84
2019-01-16T16:21:30.567Z,94564.84
2019-01-16T16:24:18.020Z,94562.48
2019-01-16T16:26:59.984Z,94562.25
2019-01-16T16:29:54.782Z,94558.18
2019-01-16T16:32:42.755Z,94555.94
2019-01-16T16:35:30.421Z,94563.53
2019-01-16T16:38:25.458Z,94565.67
2019-01-16T16:41:20.572Z,94561.53
2019-01-16T16:44:05.590Z,94563.02
2019-01-16T16:46:52.478Z,94564.94
2019-01-16T16:49:31.838Z,94559.83
2019-01-16T16:52:27.595Z,94564.52
2019-01-16T16:55:31.691Z,94557.17
2019-01-16T16:58:24.257Z,94556.48
2019-01-16T17:01:09.522Z,94547.89
2019-01-16T17:04:04.328Z,94543.41
2019-01-16T17:06:48.953Z,94536.25
2019-01-16T17:09:38.870Z,94538.12
2019-01-16T17:12:22.688Z,94532.00
2019-01-16T17:15:14.842Z,94524.14
2019-01-16T17:18:09.583Z,94521.07
2019-01-16T17:20:56.656Z,94525.48
2019-01-16T17:23:44.184Z,94529.00
2019-01-16T17:26:32.853Z,94525.55
2019-01-16T17:29:20.740Z,94523.02
2019-01-16T17:32:19.463Z,94514.03
2019-01-16T17:35:02.551Z,94516.09
2019-01-16T17:37:50.520Z,94515.02
2019-01-16T17:40:41.607Z,94510.05
2019-01-16T17:43:35.756Z,94512.33
2019-01-16T17:46:23.551Z,94505.68
2019-01-16T17:49:08.232Z,94501.39
2019-01-16T17:51:57.516Z,94501.39
2019-01-16T17:54:53.587Z,94498.46
2019-01-16T17:57:42.567Z,94506.91
2019-01-16T18:00:36.863Z,94508.23
2019-01-16T18:03:14.356Z,94509.09
2019-01-16T18:05:56.845Z,94506.95
2019-01-16T18:08:47.669Z,94506.40
2019-01-16T18:11:35.395Z,94508.20
2019-01-16T18:14:28.963Z,94513.02
2019-01-16T18:17:16.724Z,94522.09
2019-01-16T18:19:58.578Z,94512.85
2019-01-16T18:22:45.090Z,94515.20
2019-01-16T18:25:49.129Z,94510.30
2019-01-16T18:28:36.298Z,94509.30
2019-01-16T18:31:24.334Z,94508.91
2019-01-16T18:34:16.396Z,94511.56
2019-01-16T18:37:01.876Z,94514.00
2019-01-16T18:39:57.051Z,94511.09
2019-01-16T18:42:49.008Z,94503.61
2019-01-16T18:45:43.998Z,94507.84
2019-01-16T18:48:38.860Z,94509.50
2019-01-16T18:51:26.988Z,94510.19
2019-01-16T18:54:26.722Z,94516.08
2019-01-16T18:57:14.527Z,94515.47
2019-01-16T19:00:09.588Z,94518.13
2019-01-16T19:03:08.662Z,94507.91
2019-01-16T19:06:09.918Z,94515.17
2019-01-16T19:08:58.919Z,94511.93
2019-01-16T19:12:00.296Z,94505.97
2019-01-16T19:14:55.154Z,94507.64
2019-01-16T19:17:42.747Z,94505.19
2019-01-16T19:20:29.535Z,94494.64
2019-01-16T19:23:07.758Z,94499.98
2019-01-16T19:25:54.416Z,94497.42
2019-01-16T19:28:42.005Z,94494.05
2019-01-16T19:31:29.884Z,94495.03
2019-01-16T19:34:26.420Z,94493.77
2019-01-16T19:37:34.877Z,94488.25
2019-01-16T19:40:34.338Z,94493.08
2019-01-16T19:43:38.188Z,94483.34
2019-01-16T19:46:29.266Z,94488.06
2019-01-16T19:49:22.735Z,94482.76
2019-01-16T19:51:59.728Z,94485.12
2019-01-16T19:54:57.876Z,94477.55
2019-01-16T19:57:44.657Z,94480.50
2019-01-16T20:00:42.978Z,94476.48
2019-01-16T20:03:47.359Z,94481.11
2019-01-16T20:06:35.036Z,94478.31
2019-01-16T20:09:44.873Z,94481.89
2019-01-16T20:12:37.054Z,94473.91
2019-01-16T20:15:25.638Z,94479.24
2019-01-16T20:18:13.416Z,94472.55
2019-01-16T20:21:12.357Z,94472.36
2019-01-16T20:24:13.880Z,94482.66
2019-01-16T20:27:05.866Z,94476.48
2019-01-16T20:29:54.202Z,94471.58
2019-01-16T20:32:40.410Z,94469.02
2019-01-16T20:35:42.002Z,94474.10
2019-01-16T20:38:33.866Z,94471.94
2019-01-16T20:41:22.976Z,94472.55
2019-01-16T20:44:10.619Z,94461.66
2019-01-16T20:46:57.728Z,94466.84
2019-01-16T20:49:45.203Z,94464.30
2019-01-16T20:52:40.149Z,94464.69
2019-01-16T20:55:47.495Z,94466.84
2019-01-16T20:58:33.935Z,94468.61
2019-01-16T21:01:22.137Z,94465.39
2019-01-16T21:04:29.491Z,94461.27
2019-01-16T21:07:17.989Z,94464.48
2019-01-16T21:10:16.308Z,94464.79
2019-01-16T21:13:01.122Z,94454.73
2019-01-16T21:16:00.194Z,94461.81
2019-01-16T21:18:57.997Z,94453.37
2019-01-16T21:21:40.198Z,94455.76
2019-01-16T21:24:32.500Z,94454.67
2019-01-16T21:27:12.984Z,94442.48
2019-01-16T21:30:07.863Z,94444.25
2019-01-16T21:32:50.715Z,94438.17
2019-01-16T21:35:38.513Z,94441.80
2019-01-16T21:38:18.467Z,94434.83
2019-01-16T21:41:22.607Z,94437.67
2019-01-16T21:44:12.336Z,94434.58
2019-01-16T21:46:58.791Z,94440.52
2019-01-16T21:49:50.273Z,94435.22
2019-01-16T21:52:57.390Z,94428.84
2019-01-16T21:55:45.382Z,94422.34
2019-01-16T21:58:37.380Z,94431.01
2019-01-16T22:01:25.708Z,94421.55
2019-01-16T22:04:12.411Z,94416.34
2019-01-16T22:06:59.463Z,94417.84
2019-01-16T22:09:47.455Z,94417.19
2019-01-16T22:12:28.408Z,94415.48
2019-01-16T22:15:24.598Z,94415.14
2019-01-16T22:18:31.827Z,94411.60
2019-01-16T22:21:15.186Z,94400.23
2019-01-16T22:27:08.573Z,94394.65
2019-01-16T22:29:59.153Z,94400.84
2019-01-16T22:32:53.997Z,94394.83
2019-01-16T22:35:52.209Z,94397.69
2019-01-16T22:38:51.146Z,94391.39
2019-01-16T22:41:29.807Z,94391.26
2019-01-16T22:44:13.115Z,94389.72
2019-01-16T22:47:02.064Z,94389.03
2019-01-16T22:49:40.872Z,94383.27
2019-01-16T22:52:29.041Z,94389.06
2019-01-16T22:55:20.727Z,94387.89
2019-01-16T22:58:09.771Z,94389.06
2019-01-16T23:01:01.951Z,94382.90
2019-01-16T23:03:51.004Z,94380.58
2019-01-16T23:06:37.909Z,94374.50
2019-01-16T23:09:36.645Z,94368.16
2019-01-16T23:12:38.262Z,94370.89
2019-01-16T23:15:28.609Z,94367.87
2019-01-16T23:18:23.389Z,94374.46
2019-01-16T23:21:08.452Z,94362.75
2019-01-16T23:24:06.645Z,94352.03
2019-01-16T23:27:07.922Z,94356.23
2019-01-16T23:29:50.448Z,94351.79
2019-01-16T23:32:43.758Z,94352.48
2019-01-16T23:35:38.896Z,94347.88
2019-01-16T23:38:26.871Z,94344.43
2019-01-16T23:41:14.514Z,94338.55
2019-01-16T23:44:11.173Z,94335.69
2019-01-16T23:46:57.675Z,94340.20
2019-01-16T23:49:58.984Z,94335.06
2019-01-16T23:52:46.582Z,94329.94
2019-01-16T23:55:25.445Z,94326.19
2019-01-16T23:58:14.461Z,94329.00
